createdAt,value
2023-04-18T00:00:44.291Z,149.53
2023-04-18T00:01:44.447Z,152.74
2023-04-18T00:02:44.533Z,154.52
2023-04-18T00:03:44.560Z,150.54
2023-04-18T00:04:44.550Z,153.97
2023-04-18T00:05:44.554Z,150.98
2023-04-18T00:06:44.577Z,151.67
2023-04-18T00:07:44.624Z,156.24
2023-04-18T00:08:44.645Z,155.11
2023-04-18T00:09:44.836Z,150.24
2023-04-18T00:10:44.802Z,154.19
2023-04-18T00:11:44.791Z,155.00
2023-04-18T00:12:44.850Z,152.65
2023-04-18T00:13:44.871Z,152.71
2023-04-18T00:14:44.942Z,151.83
2023-04-18T00:15:44.957Z,153.31
2023-04-18T00:16:45.083Z,157.24
2023-04-18T00:17:45.108Z,152.60
2023-04-18T00:18:45.112Z,152.43
2023-04-18T00:19:45.154Z,158.73
2023-04-18T00:20:45.184Z,153.28
2023-04-18T00:21:45.332Z,159.47
2023-04-18T00:22:45.288Z,152.83
2023-04-18T00:23:45.332Z,152.50
2023-04-18T00:24:45.378Z,150.45
2023-04-18T00:25:45.452Z,155.51
2023-04-18T00:26:45.471Z,154.45
2023-04-18T00:27:45.528Z,155.87
2023-04-18T00:28:45.586Z,154.38
2023-04-18T00:29:45.628Z,152.28
2023-04-18T00:30:45.743Z,152.52
2023-04-18T00:31:45.709Z,152.90
2023-04-18T00:32:45.819Z,154.88
2023-04-18T00:33:45.802Z,154.10
2023-04-18T00:34:45.863Z,155.25
2023-04-18T00:35:45.933Z,154.18
2023-04-18T00:36:45.965Z,152.06
2023-04-18T00:37:46.016Z,157.56
2023-04-18T00:38:46.051Z,154.48
2023-04-18T00:39:46.125Z,153.99
2023-04-18T00:40:46.138Z,154.15
2023-04-18T00:41:46.205Z,155.49
2023-04-18T00:42:46.278Z,156.32
2023-04-18T00:43:46.287Z,156.11
2023-04-18T00:44:46.349Z,158.57
2023-04-18T00:45:46.439Z,161.17
2023-04-18T00:46:46.447Z,161.03
2023-04-18T00:47:46.505Z,162.30
2023-04-18T00:48:46.548Z,161.02
2023-04-18T00:49:46.618Z,161.54
2023-04-18T00:50:46.696Z,158.87
2023-04-18T00:51:46.691Z,162.57
2023-04-18T00:52:46.769Z,160.57
2023-04-18T00:53:46.835Z,161.61
2023-04-18T00:54:46.862Z,163.06
2023-04-18T00:55:46.912Z,159.28
2023-04-18T00:56:46.945Z,163.10
2023-04-18T00:57:47.010Z,161.49
2023-04-18T00:58:47.028Z,164.96
2023-04-18T00:59:47.097Z,160.20
2023-04-18T01:00:47.151Z,160.12
2023-04-18T01:01:47.219Z,162.52
2023-04-18T01:02:47.374Z,164.26
2023-04-18T01:03:47.374Z,161.91
2023-04-18T01:04:47.345Z,161.19
2023-04-18T01:05:47.391Z,160.23
2023-04-18T01:06:47.441Z,160.92
2023-04-18T01:07:47.492Z,166.03
2023-04-18T01:08:47.528Z,164.90
2023-04-18T01:09:47.594Z,166.37
2023-04-18T01:10:47.646Z,165.68
2023-04-18T01:11:47.685Z,167.54
2023-04-18T01:12:47.738Z,167.56
2023-04-18T01:13:47.765Z,165.65
2023-04-18T01:14:47.826Z,164.87
2023-04-18T01:15:47.929Z,165.39
2023-04-18T01:16:47.947Z,167.16
2023-04-18T01:17:48.037Z,168.96
2023-04-18T01:18:48.032Z,167.56
2023-04-18T01:19:48.076Z,164.14
2023-04-18T01:20:48.120Z,167.23
2023-04-18T01:21:48.175Z,163.40
2023-04-18T01:22:48.216Z,164.44
2023-04-18T01:23:48.266Z,167.96
2023-04-18T01:24:48.343Z,167.51
2023-04-18T01:25:48.410Z,171.67
2023-04-18T01:26:48.442Z,172.35
2023-04-18T01:27:48.478Z,168.82
2023-04-18T01:28:48.505Z,165.35
2023-04-18T01:29:48.571Z,165.93
2023-04-18T01:30:48.620Z,165.21
2023-04-18T01:31:48.721Z,167.01
2023-04-18T01:32:48.748Z,166.76
2023-04-18T01:33:48.766Z,165.93
2023-04-18T01:34:48.810Z,164.81
2023-04-18T01:35:48.854Z,164.57
2023-04-18T01:36:48.921Z,165.59
2023-04-18T01:37:48.963Z,163.91
2023-04-18T01:38:49.016Z,163.22
2023-04-18T01:39:49.076Z,169.89
2023-04-18T01:40:49.125Z,164.20
2023-04-18T01:41:49.168Z,166.40
2023-04-18T01:42:49.212Z,165.20
2023-04-18T01:43:49.274Z,164.67
2023-04-18T01:44:49.331Z,167.64
2023-04-18T01:45:49.377Z,163.44
2023-04-18T01:46:49.446Z,164.37
2023-04-18T01:47:49.557Z,171.28
2023-04-18T01:48:49.526Z,166.96
2023-04-18T01:49:49.588Z,167.07
2023-04-18T01:50:49.633Z,168.12
2023-04-18T01:51:49.668Z,167.58
2023-04-18T01:52:49.732Z,167.47
2023-04-18T01:53:49.779Z,168.06
2023-04-18T01:54:49.824Z,165.98
2023-04-18T01:55:49.884Z,168.04
2023-04-18T01:56:49.935Z,164.87
2023-04-18T01:57:50.044Z,170.00
2023-04-18T01:58:50.685Z,169.55
2023-04-18T01:59:50.076Z,167.73
2023-04-18T02:00:50.160Z,168.65
2023-04-18T02:01:50.230Z,163.66
2023-04-18T02:02:50.359Z,165.11
2023-04-18T02:03:50.610Z,165.42
2023-04-18T02:04:50.386Z,163.20
2023-04-18T02:05:50.397Z,160.11
2023-04-18T02:06:50.473Z,162.20
2023-04-18T02:07:50.500Z,158.50
2023-04-18T02:08:50.566Z,161.41
2023-04-18T02:09:50.582Z,159.80
2023-04-18T02:10:50.693Z,156.61
2023-04-18T02:11:50.699Z,158.55
2023-04-18T02:12:50.745Z,155.10
2023-04-18T02:13:50.798Z,159.15
2023-04-18T02:14:50.821Z,155.98
2023-04-18T02:15:50.891Z,160.68
2023-04-18T02:16:51.101Z,159.31
2023-04-18T02:17:51.004Z,157.63
2023-04-18T02:18:51.065Z,154.50
2023-04-18T02:19:51.077Z,158.92
2023-04-18T02:20:51.142Z,158.80
2023-04-18T02:21:51.213Z,161.12
2023-04-18T02:22:51.257Z,160.32
2023-04-18T02:23:51.274Z,162.31
2023-04-18T02:24:51.353Z,159.86
2023-04-18T02:25:51.433Z,161.19
2023-04-18T02:26:51.476Z,159.39
2023-04-18T02:27:51.477Z,156.37
2023-04-18T02:28:51.524Z,158.52
2023-04-18T02:29:51.655Z,160.44
2023-04-18T02:30:51.680Z,163.10
2023-04-18T02:31:51.734Z,164.90
2023-04-18T02:32:51.771Z,163.02
2023-04-18T02:33:51.767Z,161.77
2023-04-18T02:34:51.825Z,166.77
2023-04-18T02:35:51.882Z,166.06
2023-04-18T02:36:51.931Z,163.92
2023-04-18T02:37:51.970Z,165.15
2023-04-18T02:38:52.017Z,163.33
2023-04-18T02:39:52.056Z,163.49
2023-04-18T02:40:52.156Z,161.86
2023-04-18T02:41:52.182Z,159.67
2023-04-18T02:42:52.223Z,157.97
2023-04-18T02:43:52.279Z,161.48
2023-04-18T02:44:52.346Z,164.12
2023-04-18T02:45:52.385Z,161.03
2023-04-18T02:46:52.423Z,160.27
2023-04-18T02:47:55.896Z,159.63
2023-04-18T02:48:52.469Z,159.75
2023-04-18T02:49:52.484Z,160.04
2023-04-18T02:50:52.467Z,160.39
2023-04-18T02:51:52.442Z,162.39
2023-04-18T02:52:52.465Z,168.98
2023-04-18T02:53:52.442Z,162.78
2023-04-18T02:54:52.442Z,168.92
2023-04-18T02:55:52.415Z,165.77
2023-04-18T02:56:52.428Z,167.88
2023-04-18T02:57:52.418Z,165.42
2023-04-18T02:58:52.429Z,165.48
2023-04-18T02:59:52.433Z,164.79
2023-04-18T03:00:52.478Z,168.36
2023-04-18T03:01:52.478Z,164.35
2023-04-18T03:02:52.428Z,170.69
2023-04-18T03:03:52.363Z,170.69
2023-04-18T03:04:52.395Z,173.41
2023-04-18T03:05:52.354Z,172.30
2023-04-18T03:06:52.361Z,170.91
2023-04-18T03:07:52.347Z,172.01
2023-04-18T03:08:52.348Z,173.13
2023-04-18T03:09:52.338Z,174.25
2023-04-18T03:10:52.790Z,176.08
2023-04-18T03:11:52.322Z,172.84
2023-04-18T03:12:52.348Z,175.06
2023-04-18T03:13:52.399Z,175.07
2023-04-18T03:14:52.439Z,174.47
2023-04-18T03:15:52.537Z,173.29
2023-04-18T03:16:55.177Z,174.79
2023-04-18T03:17:52.609Z,173.67
2023-04-18T03:18:52.535Z,173.12
2023-04-18T03:19:52.532Z,172.03
2023-04-18T03:20:52.504Z,172.93
2023-04-18T03:21:52.518Z,173.25
2023-04-18T03:22:52.511Z,172.58
2023-04-18T03:23:52.486Z,172.70
2023-04-18T03:24:52.499Z,170.45
2023-04-18T03:25:52.481Z,171.62
2023-04-18T03:26:52.473Z,173.67
2023-04-18T03:27:52.475Z,172.47
2023-04-18T03:28:52.457Z,170.54
2023-04-18T03:29:52.468Z,173.43
2023-04-18T03:30:52.481Z,169.09
2023-04-18T03:31:52.445Z,168.25
2023-04-18T03:32:52.480Z,168.37
2023-04-18T03:33:52.437Z,171.63
2023-04-18T03:34:52.429Z,168.90
2023-04-18T03:35:52.400Z,166.79
2023-04-18T03:36:52.426Z,171.27
2023-04-18T03:37:52.412Z,167.65
2023-04-18T03:38:52.396Z,166.69
2023-04-18T03:39:52.413Z,164.93
2023-04-18T03:40:52.389Z,164.83
2023-04-18T03:41:52.415Z,171.48
2023-04-18T03:42:52.378Z,166.71
2023-04-18T03:43:52.363Z,168.77
2023-04-18T03:44:52.366Z,166.60
2023-04-18T03:45:52.351Z,169.11
2023-04-18T03:46:52.340Z,167.65
2023-04-18T03:47:52.400Z,168.20
2023-04-18T03:48:52.325Z,166.34
2023-04-18T03:49:52.347Z,165.99
2023-04-18T03:50:52.315Z,162.72
2023-04-18T03:51:52.315Z,162.56
2023-04-18T03:52:52.314Z,162.89
2023-04-18T03:53:52.302Z,165.18
2023-04-18T03:54:52.285Z,161.11
2023-04-18T03:55:52.292Z,165.86
2023-04-18T03:56:52.290Z,167.30
2023-04-18T03:57:52.302Z,168.48
2023-04-18T03:58:52.293Z,168.21
2023-04-18T03:59:52.343Z,169.61
2023-04-18T04:00:52.379Z,170.35
2023-04-18T04:01:52.561Z,168.25
2023-04-18T04:02:52.749Z,166.53
2023-04-18T04:03:52.754Z,165.75
2023-04-18T04:04:52.723Z,167.45
2023-04-18T04:05:52.704Z,168.13
2023-04-18T04:06:52.697Z,167.82
2023-04-18T04:07:52.777Z,165.57
2023-04-18T04:08:52.797Z,166.25
2023-04-18T04:09:52.847Z,169.88
2023-04-18T04:10:52.908Z,166.88
2023-04-18T04:11:52.966Z,163.91
2023-04-18T04:12:52.995Z,163.69
2023-04-18T04:13:53.041Z,168.65
2023-04-18T04:14:53.090Z,169.25
2023-04-18T04:15:53.217Z,166.65
2023-04-18T04:16:53.294Z,164.04
2023-04-18T04:17:53.267Z,163.70
2023-04-18T04:18:53.292Z,164.52
2023-04-18T04:19:53.348Z,162.73
2023-04-18T04:20:53.432Z,166.77
2023-04-18T04:21:53.482Z,165.79
2023-04-18T04:22:53.529Z,167.88
2023-04-18T04:23:53.549Z,168.51
2023-04-18T04:24:53.627Z,167.83
2023-04-18T04:25:53.679Z,166.77
2023-04-18T04:26:53.743Z,165.07
2023-04-18T04:27:53.792Z,163.64
2023-04-18T04:28:53.823Z,167.26
2023-04-18T04:29:53.872Z,167.49
2023-04-18T04:30:53.921Z,163.99
2023-04-18T04:31:54.006Z,166.44
2023-04-18T04:32:54.029Z,163.24
2023-04-18T04:33:54.073Z,164.92
2023-04-18T04:34:54.110Z,166.85
2023-04-18T04:35:54.174Z,166.84
2023-04-18T04:36:54.207Z,168.62
2023-04-18T04:37:54.272Z,167.00
2023-04-18T04:38:54.317Z,167.26
2023-04-18T04:39:54.365Z,167.10
2023-04-18T04:40:54.428Z,165.17
2023-04-18T04:41:54.478Z,166.26
2023-04-18T04:42:54.542Z,163.97
2023-04-18T04:43:54.581Z,163.93
2023-04-18T04:44:54.702Z,166.45
2023-04-18T04:45:54.711Z,166.21
2023-04-18T04:46:54.735Z,168.92
2023-04-18T04:47:54.815Z,170.46
2023-04-18T04:48:54.808Z,169.87
2023-04-18T04:49:54.885Z,170.49
2023-04-18T04:50:54.956Z,167.88
2023-04-18T04:51:54.985Z,172.64
2023-04-18T04:52:55.015Z,170.08
2023-04-18T04:53:55.084Z,172.88
2023-04-18T04:54:55.151Z,174.75
2023-04-18T04:55:55.178Z,178.18
2023-04-18T04:56:55.225Z,174.34
2023-04-18T04:57:55.275Z,177.40
2023-04-18T04:58:55.332Z,178.83
2023-04-18T04:59:55.379Z,179.31
2023-04-18T05:00:55.446Z,183.51
2023-04-18T05:01:55.529Z,180.84
2023-04-18T05:02:55.706Z,180.62
2023-04-18T05:03:55.746Z,180.80
2023-04-18T05:04:55.666Z,179.88
2023-04-18T05:05:55.673Z,180.87
2023-04-18T05:06:55.741Z,183.54
2023-04-18T05:07:55.795Z,183.56
2023-04-18T05:08:55.849Z,184.96
2023-04-18T05:09:55.894Z,189.33
2023-04-18T05:10:55.937Z,183.23
2023-04-18T05:11:55.992Z,179.18
2023-04-18T05:12:56.059Z,185.03
2023-04-18T05:13:56.093Z,186.41
2023-04-18T05:14:56.133Z,188.13
2023-04-18T05:15:56.189Z,193.01
2023-04-18T05:16:56.299Z,193.58
2023-04-18T05:17:56.329Z,195.88
2023-04-18T05:18:56.362Z,198.75
2023-04-18T05:19:56.387Z,201.80
2023-04-18T05:20:56.421Z,203.12
2023-04-18T05:21:56.462Z,203.97
2023-04-18T05:22:56.522Z,205.79
2023-04-18T05:23:56.574Z,207.24
2023-04-18T05:24:56.625Z,209.34
2023-04-18T05:25:56.637Z,213.08
2023-04-18T05:26:56.701Z,210.60
2023-04-18T05:27:56.735Z,211.53
2023-04-18T05:28:56.764Z,211.17
2023-04-18T05:29:56.845Z,214.37
2023-04-18T05:30:56.907Z,218.18
2023-04-18T05:31:56.921Z,224.84
2023-04-18T05:32:57.003Z,225.81
2023-04-18T05:33:56.994Z,229.12
2023-04-18T05:34:57.025Z,233.63
2023-04-18T05:35:57.033Z,239.95
2023-04-18T05:36:57.067Z,246.95
2023-04-18T05:37:57.083Z,250.33
2023-04-18T05:38:57.150Z,250.00
2023-04-18T05:39:59.305Z,255.34
2023-04-18T05:40:57.163Z,257.55
2023-04-18T05:41:57.121Z,250.00
2023-04-18T05:42:57.182Z,248.67
2023-04-18T05:44:05.001Z,248.31
2023-04-18T05:44:58.111Z,248.47
2023-04-18T05:45:57.946Z,248.33
2023-04-18T05:46:57.077Z,248.38
2023-04-18T05:47:57.161Z,249.33
2023-04-18T05:48:57.077Z,251.38
2023-04-18T05:49:57.127Z,249.77
2023-04-18T05:50:57.094Z,249.96
2023-04-18T05:51:57.048Z,249.48
2023-04-18T05:52:57.078Z,250.00
2023-04-18T05:53:57.071Z,248.29
2023-04-18T05:54:57.258Z,249.67
2023-04-18T05:55:57.128Z,248.21
2023-04-18T05:56:57.235Z,249.79
2023-04-18T05:57:57.360Z,248.19
2023-04-18T05:58:57.374Z,248.54
2023-04-18T05:59:57.433Z,248.83
2023-04-18T06:00:57.402Z,247.22
2023-04-18T06:01:57.470Z,244.91
2023-04-18T06:02:57.919Z,248.92
2023-04-18T06:03:57.635Z,248.65
2023-04-18T06:04:57.635Z,248.49
2023-04-18T06:05:57.754Z,247.96
2023-04-18T06:06:57.581Z,246.72
2023-04-18T06:07:57.819Z,244.53
2023-04-18T06:08:57.730Z,246.41
2023-04-18T06:09:57.763Z,249.07
2023-04-18T06:10:57.811Z,236.15
2023-04-18T06:11:57.864Z,213.52
2023-04-18T06:12:57.893Z,200.52
2023-04-18T06:13:58.298Z,187.90
2023-04-18T06:14:58.001Z,195.30
2023-04-18T06:15:57.991Z,214.92
2023-04-18T06:16:57.996Z,219.30
2023-04-18T06:17:58.053Z,223.72
2023-04-18T06:19:00.359Z,223.09
2023-04-18T06:19:58.046Z,225.02
2023-04-18T06:20:58.019Z,228.17
2023-04-18T06:21:57.974Z,226.00
2023-04-18T06:22:57.962Z,231.06
2023-04-18T06:23:57.965Z,233.31
2023-04-18T06:24:57.978Z,235.67
2023-04-18T06:25:57.954Z,236.11
2023-04-18T06:26:57.953Z,236.84
2023-04-18T06:27:57.936Z,238.65
2023-04-18T06:28:57.942Z,238.24
2023-04-18T06:29:57.970Z,235.88
2023-04-18T06:30:57.910Z,232.35
2023-04-18T06:31:58.074Z,225.13
2023-04-18T06:32:59.886Z,219.40
2023-04-18T06:33:57.906Z,221.75
2023-04-18T06:34:57.901Z,221.70
2023-04-18T06:35:57.889Z,229.12
2023-04-18T06:36:57.844Z,231.69
2023-04-18T06:37:57.869Z,230.67
2023-04-18T06:38:57.832Z,243.73
2023-04-18T06:39:57.872Z,245.36
2023-04-18T06:40:57.908Z,250.00
2023-04-18T06:41:57.994Z,248.37
2023-04-18T06:42:58.077Z,246.75
2023-04-18T06:44:58.303Z,250.27
2023-04-18T06:45:58.074Z,249.79
2023-04-18T06:46:58.062Z,244.60
2023-04-18T06:47:58.069Z,243.68
2023-04-18T06:48:58.084Z,246.65
2023-04-18T06:49:58.047Z,247.25
2023-04-18T06:50:58.012Z,249.35
2023-04-18T06:51:58.031Z,247.06
2023-04-18T06:52:58.007Z,245.18
2023-04-18T06:53:58.014Z,245.68
2023-04-18T06:54:58.025Z,243.95
2023-04-18T06:55:57.979Z,242.64
2023-04-18T06:56:57.998Z,242.11
2023-04-18T06:57:58.023Z,238.41
2023-04-18T06:58:58.299Z,240.21
2023-04-18T06:59:57.980Z,237.61
2023-04-18T07:00:57.999Z,238.38
2023-04-18T07:01:57.993Z,239.11
2023-04-18T07:02:58.138Z,239.19
2023-04-18T07:03:58.354Z,240.05
2023-04-18T07:04:57.938Z,240.28
2023-04-18T07:05:57.900Z,236.44
2023-04-18T07:06:57.922Z,233.23
2023-04-18T07:07:57.900Z,232.05
2023-04-18T07:08:57.927Z,230.69
2023-04-18T07:09:57.888Z,233.69
2023-04-18T07:10:58.323Z,232.26
2023-04-18T07:11:57.939Z,232.88
2023-04-18T07:12:57.869Z,232.14
2023-04-18T07:13:57.852Z,233.00
2023-04-18T07:14:57.891Z,232.05
2023-04-18T07:15:57.822Z,230.63
2023-04-18T07:16:57.885Z,229.89
2023-04-18T07:17:57.898Z,227.56
2023-04-18T07:18:57.827Z,228.39
2023-04-18T07:19:57.815Z,228.08
2023-04-18T07:20:57.817Z,228.34
2023-04-18T07:21:57.785Z,224.93
2023-04-18T07:22:57.800Z,225.20
2023-04-18T07:23:57.802Z,228.67
2023-04-18T07:24:57.770Z,224.76
2023-04-18T07:25:57.744Z,217.32
2023-04-18T07:26:57.757Z,212.17
2023-04-18T07:27:57.757Z,214.47
2023-04-18T07:28:57.750Z,214.61
2023-04-18T07:29:57.740Z,209.10
2023-04-18T07:30:57.910Z,203.73
2023-04-18T07:31:57.723Z,211.38
2023-04-18T07:32:57.787Z,217.70
2023-04-18T07:33:58.105Z,218.08
2023-04-18T07:34:57.796Z,214.91
2023-04-18T07:35:57.813Z,215.73
2023-04-18T07:36:57.817Z,215.11
2023-04-18T07:37:57.855Z,209.10
2023-04-18T07:38:57.878Z,206.03
2023-04-18T07:39:57.907Z,205.85
2023-04-18T07:40:58.298Z,202.35
2023-04-18T07:41:57.894Z,206.97
2023-04-18T07:42:57.883Z,207.73
2023-04-18T07:43:58.333Z,208.84
2023-04-18T07:44:57.909Z,204.22
2023-04-18T07:45:57.966Z,204.37
2023-04-18T07:46:57.935Z,206.48
2023-04-18T07:47:58.070Z,196.76
2023-04-18T07:48:58.305Z,198.96
2023-04-18T07:49:58.140Z,202.63
2023-04-18T07:50:58.165Z,208.56
2023-04-18T07:51:58.226Z,209.51
2023-04-18T07:52:58.340Z,209.30
2023-04-18T07:53:58.340Z,211.37
2023-04-18T07:54:58.387Z,212.73
2023-04-18T07:55:58.411Z,209.55
2023-04-18T07:56:58.475Z,209.24
2023-04-18T07:57:58.503Z,212.43
2023-04-18T07:58:58.530Z,209.72
2023-04-18T07:59:58.693Z,213.20
2023-04-18T08:00:58.634Z,212.33
2023-04-18T08:01:58.749Z,213.03
2023-04-18T08:02:58.887Z,215.11
2023-04-18T08:03:58.891Z,215.32
2023-04-18T08:04:58.915Z,215.86
2023-04-18T08:05:58.994Z,214.30
2023-04-18T08:06:58.965Z,217.15
2023-04-18T08:07:59.018Z,215.89
2023-04-18T08:08:59.112Z,214.91
2023-04-18T08:09:59.163Z,215.43
2023-04-18T08:10:59.182Z,211.03
2023-04-18T08:11:59.251Z,211.09
2023-04-18T08:12:59.301Z,211.69
2023-04-18T08:13:59.344Z,208.43
2023-04-18T08:14:59.849Z,203.73
2023-04-18T08:15:59.505Z,196.27
2023-04-18T08:16:59.501Z,196.88
2023-04-18T08:17:59.499Z,189.60
2023-04-18T08:18:59.538Z,194.26
2023-04-18T08:19:59.831Z,199.66
2023-04-18T08:20:59.846Z,202.83
2023-04-18T08:21:59.620Z,197.79
2023-04-18T08:23:59.676Z,208.39
2023-04-18T08:25:05.153Z,209.53
2023-04-18T08:26:00.676Z,209.82
2023-04-18T08:26:59.680Z,210.28
2023-04-18T08:27:59.652Z,211.34
2023-04-18T08:28:59.678Z,212.96
2023-04-18T08:29:59.950Z,215.02
2023-04-18T08:30:59.667Z,211.32
2023-04-18T08:31:59.714Z,209.00
2023-04-18T08:32:59.669Z,210.00
2023-04-18T08:33:59.644Z,208.25
2023-04-18T08:34:59.598Z,208.80
2023-04-18T08:35:59.599Z,186.80
2023-04-18T08:36:59.567Z,180.97
2023-04-18T08:37:59.752Z,185.97
2023-04-18T08:38:59.570Z,184.46
2023-04-18T08:39:59.576Z,185.62
2023-04-18T08:40:59.558Z,195.52
2023-04-18T08:41:59.566Z,205.10
2023-04-18T08:42:59.526Z,208.89
2023-04-18T08:43:59.577Z,214.01
2023-04-18T08:44:59.522Z,216.58
2023-04-18T08:45:59.551Z,220.01
2023-04-18T08:46:59.490Z,217.86
2023-04-18T08:47:59.596Z,221.52
2023-04-18T08:48:59.479Z,224.10
2023-04-18T08:49:59.498Z,225.43
2023-04-18T08:50:59.462Z,226.25
2023-04-18T08:51:59.484Z,227.42
2023-04-18T08:52:59.470Z,226.74
2023-04-18T08:53:59.507Z,226.77
2023-04-18T08:54:59.499Z,228.05
2023-04-18T08:56:00.372Z,227.64
2023-04-18T08:56:59.487Z,226.03
2023-04-18T08:57:59.536Z,225.85
2023-04-18T08:58:59.516Z,222.83
2023-04-18T08:59:59.592Z,221.09
2023-04-18T09:00:59.615Z,219.56
2023-04-18T09:01:59.648Z,215.44
2023-04-18T09:02:59.670Z,214.68
2023-04-18T09:03:59.640Z,216.06
2023-04-18T09:04:59.659Z,215.49
2023-04-18T09:05:59.831Z,212.46
2023-04-18T09:06:59.682Z,212.90
2023-04-18T09:07:59.721Z,206.16
2023-04-18T09:08:59.742Z,207.09
2023-04-18T09:09:59.814Z,206.07
2023-04-18T09:10:59.846Z,204.66
2023-04-18T09:11:59.791Z,206.27
2023-04-18T09:12:59.796Z,205.72
2023-04-18T09:13:59.811Z,202.96
2023-04-18T09:14:59.889Z,204.97
2023-04-18T09:16:00.340Z,203.33
2023-04-18T09:17:00.009Z,205.30
2023-04-18T09:18:00.060Z,202.26
2023-04-18T09:18:59.906Z,204.18
2023-04-18T09:19:59.984Z,205.12
2023-04-18T09:20:59.994Z,202.33
2023-04-18T09:22:00.055Z,196.60
2023-04-18T09:23:00.060Z,197.30
2023-04-18T09:24:00.125Z,197.74
2023-04-18T09:25:00.348Z,198.30
2023-04-18T09:26:00.293Z,195.17
2023-04-18T09:27:00.154Z,172.47
2023-04-18T09:28:00.186Z,140.36
2023-04-18T09:29:00.173Z,108.82
2023-04-18T09:30:00.354Z,62.55
2023-04-18T09:31:00.268Z,17.10
2023-04-18T09:32:00.235Z,0.00
2023-04-18T09:33:00.891Z,0.00
2023-04-18T09:34:00.249Z,0.00
2023-04-18T09:35:01.961Z,1.15
2023-04-18T09:36:00.364Z,25.15
2023-04-18T09:37:00.293Z,39.45
2023-04-18T09:38:00.268Z,52.12
2023-04-18T09:39:00.251Z,70.45
2023-04-18T09:40:00.234Z,83.88
2023-04-18T09:41:00.261Z,97.27
2023-04-18T09:42:00.267Z,108.56
2023-04-18T09:43:00.241Z,116.49
2023-04-18T09:44:00.200Z,131.32
2023-04-18T09:45:00.252Z,142.78
2023-04-18T09:46:00.235Z,147.91
2023-04-18T09:47:00.219Z,153.41
2023-04-18T09:48:00.230Z,157.18
2023-04-18T09:49:00.189Z,159.06
2023-04-18T09:50:00.164Z,158.56
2023-04-18T09:51:00.192Z,157.62
2023-04-18T09:52:00.365Z,162.98
2023-04-18T09:53:00.151Z,167.65
2023-04-18T09:54:00.175Z,169.28
2023-04-18T09:55:00.185Z,171.38
2023-04-18T09:56:00.139Z,169.97
2023-04-18T09:57:00.120Z,172.77
2023-04-18T09:58:00.141Z,173.67
2023-04-18T09:59:00.120Z,175.75
2023-04-18T10:00:00.164Z,178.22
2023-04-18T10:01:00.378Z,178.18
2023-04-18T10:02:00.153Z,178.16
2023-04-18T10:03:00.243Z,179.95
2023-04-18T10:04:00.208Z,180.08
2023-04-18T10:05:00.278Z,184.27
2023-04-18T10:06:00.063Z,187.21
2023-04-18T10:07:00.053Z,188.42
2023-04-18T10:08:00.051Z,188.98
2023-04-18T10:09:00.028Z,187.50
2023-04-18T10:10:00.028Z,185.85
2023-04-18T10:11:00.072Z,189.54
2023-04-18T10:12:00.012Z,187.73
2023-04-18T10:13:00.049Z,188.35
2023-04-18T10:14:00.004Z,187.75
2023-04-18T10:14:59.960Z,186.92
2023-04-18T10:15:59.985Z,187.41
2023-04-18T10:16:59.980Z,188.07
2023-04-18T10:18:05.207Z,190.42
2023-04-18T10:19:00.948Z,190.52
2023-04-18T10:19:59.958Z,190.85
2023-04-18T10:20:59.964Z,164.48
2023-04-18T10:22:00.367Z,128.28
2023-04-18T10:22:59.932Z,78.28
2023-04-18T10:23:59.931Z,45.38
2023-04-18T10:24:59.906Z,11.51
2023-04-18T10:25:59.901Z,13.93
2023-04-18T10:27:00.375Z,16.17
2023-04-18T10:27:59.942Z,28.43
2023-04-18T10:28:59.878Z,49.10
2023-04-18T10:29:59.861Z,61.93
2023-04-18T10:30:59.922Z,82.91
2023-04-18T10:32:00.047Z,102.73
2023-04-18T10:32:59.885Z,113.30
2023-04-18T10:34:18.284Z,117.70
2023-04-18T10:35:00.858Z,118.17
2023-04-18T10:35:59.903Z,120.32
2023-04-18T10:36:59.841Z,127.24
2023-04-18T10:37:59.862Z,140.44
2023-04-18T10:38:59.845Z,162.02
2023-04-18T10:39:59.820Z,159.27
2023-04-18T10:40:59.919Z,165.61
2023-04-18T10:41:59.826Z,176.19
2023-04-18T10:42:59.830Z,179.77
2023-04-18T10:43:59.811Z,182.54
2023-04-18T10:44:59.789Z,185.45
2023-04-18T10:46:00.006Z,187.93
2023-04-18T10:46:59.815Z,189.78
2023-04-18T10:47:59.846Z,188.36
2023-04-18T10:48:59.756Z,190.55
2023-04-18T10:49:59.856Z,190.53
2023-04-18T10:50:59.879Z,192.15
2023-04-18T10:51:59.939Z,194.26
2023-04-18T10:52:59.998Z,198.63
2023-04-18T10:54:00.066Z,201.02
2023-04-18T10:55:00.783Z,202.76
2023-04-18T10:56:00.175Z,205.27
2023-04-18T10:57:00.200Z,206.63
2023-04-18T10:58:00.267Z,211.51
2023-04-18T10:59:00.327Z,210.88
2023-04-18T11:00:00.377Z,212.03
2023-04-18T11:01:00.527Z,213.41
2023-04-18T11:02:00.583Z,215.79
2023-04-18T11:03:00.721Z,214.31
2023-04-18T11:04:00.840Z,215.12
2023-04-18T11:05:00.659Z,214.26
2023-04-18T11:06:00.678Z,215.67
2023-04-18T11:07:00.729Z,217.95
2023-04-18T11:08:00.772Z,213.12
2023-04-18T11:09:00.869Z,200.18
2023-04-18T11:10:00.887Z,198.02
2023-04-18T11:11:01.441Z,193.99
2023-04-18T11:12:01.405Z,135.90
2023-04-18T11:13:01.047Z,68.64
2023-04-18T11:14:01.084Z,23.54
2023-04-18T11:15:01.107Z,0.37
2023-04-18T11:16:01.426Z,0.00
2023-04-18T11:17:01.233Z,0.00
2023-04-18T11:18:01.212Z,0.00
2023-04-18T11:19:01.199Z,0.00
2023-04-18T11:20:01.220Z,0.00
2023-04-18T11:21:01.297Z,0.00
2023-04-18T11:22:01.419Z,0.00
2023-04-18T11:23:01.365Z,0.00
2023-04-18T11:24:01.457Z,0.00
2023-04-18T11:25:01.461Z,0.00
2023-04-18T11:26:01.499Z,0.00
2023-04-18T11:27:01.482Z,11.34
2023-04-18T11:28:01.511Z,9.92
2023-04-18T11:29:01.518Z,16.63
2023-04-18T11:30:01.601Z,26.38
2023-04-18T11:31:01.611Z,24.89
2023-04-18T11:32:01.621Z,27.40
2023-04-18T11:33:01.592Z,27.14
2023-04-18T11:34:01.722Z,25.26
2023-04-18T11:35:01.736Z,26.36
2023-04-18T11:36:01.788Z,27.84
2023-04-18T11:37:01.765Z,31.03
2023-04-18T11:38:01.778Z,36.35
2023-04-18T11:39:01.777Z,38.54
2023-04-18T11:40:01.827Z,40.88
2023-04-18T11:41:01.876Z,40.02
2023-04-18T11:42:01.869Z,41.37
2023-04-18T11:43:01.876Z,41.84
2023-04-18T11:44:01.917Z,41.77
2023-04-18T11:45:01.934Z,41.27
2023-04-18T11:46:02.065Z,39.78
2023-04-18T11:47:01.966Z,26.91
2023-04-18T11:48:02.042Z,28.23
2023-04-18T11:49:02.061Z,48.77
2023-04-18T11:50:02.126Z,54.38
2023-04-18T11:51:02.146Z,66.74
2023-04-18T11:52:02.209Z,77.88
2023-04-18T11:53:02.249Z,84.22
2023-04-18T11:54:02.308Z,92.23
2023-04-18T11:55:02.311Z,98.14
2023-04-18T11:56:02.365Z,100.98
2023-04-18T11:57:02.437Z,104.76
2023-04-18T11:58:02.428Z,106.31
2023-04-18T11:59:02.491Z,108.29
2023-04-18T12:00:02.461Z,110.13
2023-04-18T12:01:02.495Z,114.04
2023-04-18T12:02:14.427Z,116.31
2023-04-18T12:03:03.626Z,116.36
2023-04-18T12:04:03.751Z,116.76
2023-04-18T12:05:02.708Z,118.02
2023-04-18T12:06:02.598Z,120.53
2023-04-18T12:07:02.916Z,125.16
2023-04-18T12:08:02.483Z,125.66
2023-04-18T12:09:02.478Z,128.80
2023-04-18T12:10:02.491Z,130.24
2023-04-18T12:11:02.475Z,132.39
2023-04-18T12:12:02.457Z,134.44
2023-04-18T12:13:02.455Z,136.32
2023-04-18T12:14:04.115Z,138.10
2023-04-18T12:15:02.480Z,138.50
2023-04-18T12:16:02.514Z,138.77
2023-04-18T12:17:02.414Z,130.01
2023-04-18T12:18:02.485Z,100.79
2023-04-18T12:19:02.406Z,77.72
2023-04-18T12:20:02.418Z,41.60
2023-04-18T12:21:02.387Z,33.85
2023-04-18T12:22:02.481Z,33.64
2023-04-18T12:23:02.357Z,39.71
2023-04-18T12:24:02.414Z,52.03
2023-04-18T12:25:02.482Z,64.01
2023-04-18T12:26:02.557Z,73.81
2023-04-18T12:27:02.581Z,80.20
2023-04-18T12:28:02.605Z,85.01
2023-04-18T12:29:02.602Z,91.99
2023-04-18T12:30:02.635Z,104.84
2023-04-18T12:31:02.701Z,115.99
2023-04-18T12:32:02.702Z,122.79
2023-04-18T12:33:02.782Z,132.71
2023-04-18T12:34:02.745Z,137.21